Time;durP1;ratioP1;P1;durP2;ratioP2;P2;SDS_P1;SDS_P2;PMS_P1;PMS_P2;Temp;Humidity;BMP_temperature;BMP_pressure;BME280_temperature;BME280_humidity;BME280_pressure;Samples;Min_cycle;Max_cycle;Signal;HPM_P1;HPM_P2
2023/04/04 00:00:23;;;;;;;2.88;2.67;;;;;;;1.04;73.09;103101.84;6188191;23;20025;-78
2023/04/04 00:02:49;;;;;;;5.47;2.97;;;;;;;1.03;72.96;103110.03;6188480;23;20017;-77
2023/04/04 00:05:16;;;;;;;4.35;3.00;;;;;;;1.02;73.08;103105.84;6187665;23;20017;-78
2023/04/04 00:07:46;;;;;;;4.47;2.88;;;;;;;1.00;73.27;103104.31;6187866;23;20246;-78
2023/04/04 00:10:13;;;;;;;3.83;2.97;;;;;;;1.01;72.85;103102.47;6187652;23;20029;-77
2023/04/04 00:12:40;;;;;;;4.40;2.75;;;;;;;1.01;72.86;103107.72;6192416;23;20027;-78
2023/04/04 00:15:07;;;;;;;4.63;2.90;;;;;;;0.98;72.78;103098.63;6188497;23;20435;-77
2023/04/04 00:17:34;;;;;;;3.80;3.25;;;;;;;0.97;72.88;103086.59;6188647;23;20017;-77
2023/04/04 00:20:03;;;;;;;8.82;2.83;;;;;;;0.98;72.87;103087.34;6188171;23;20368;-78
2023/04/04 00:22:30;;;;;;;4.63;3.20;;;;;;;0.96;72.91;103086.91;6186394;23;20029;-78
2023/04/04 00:24:57;;;;;;;5.50;3.00;;;;;;;0.95;72.79;103088.75;6187735;23;20045;-78
2023/04/04 00:27:23;;;;;;;4.75;3.38;;;;;;;0.93;73.51;103079.66;6193269;23;20017;-78
2023/04/04 00:29:50;;;;;;;7.05;3.20;;;;;;;0.90;73.73;103086.31;6186238;23;20048;-78
2023/04/04 00:32:16;;;;;;;5.97;3.28;;;;;;;0.87;73.81;103073.81;6187967;23;20018;-78
2023/04/04 00:34:43;;;;;;;4.45;3.45;;;;;;;0.82;74.13;103071.38;6188095;23;20021;-78
2023/04/04 00:37:11;;;;;;;4.22;2.85;;;;;;;0.82;74.46;103073.22;6187660;23;20099;-78
2023/04/04 00:39:39;;;;;;;2.58;2.47;;;;;;;0.78;74.55;103072.34;6187362;23;20021;-77
2023/04/04 00:42:06;;;;;;;5.15;2.92;;;;;;;0.74;74.78;103066.97;6189036;23;20029;-77
2023/04/04 00:44:35;;;;;;;4.22;3.00;;;;;;;0.73;74.55;103075.16;6186464;23;20045;-77
2023/04/04 00:47:03;;;;;;;3.33;2.80;;;;;;;0.70;74.62;103084.41;6186491;23;20422;-78
2023/04/04 00:49:29;;;;;;;7.93;3.00;;;;;;;0.63;74.88;103082.25;6188033;23;20026;-78
2023/04/04 00:51:56;;;;;;;4.13;2.83;;;;;;;0.61;75.56;103073.19;6187176;23;20022;-78
2023/04/04 00:54:24;;;;;;;3.85;2.83;;;;;;;0.57;76.54;103072.25;6188011;23;20103;-77
2023/04/04 00:56:54;;;;;;;3.10;2.83;;;;;;;0.54;76.59;103078.91;6187421;23;20044;-77
2023/04/04 00:59:22;;;;;;;4.90;2.70;;;;;;;0.46;76.95;103076.31;6190904;23;20025;-78
2023/04/04 01:01:49;;;;;;;2.70;2.50;;;;;;;0.43;77.37;103079.53;6187952;23;20455;-78
2023/04/04 01:04:16;;;;;;;4.18;2.88;;;;;;;0.37;77.83;103076.34;6185743;23;20028;-77
2023/04/04 01:06:44;;;;;;;3.10;2.80;;;;;;;0.33;77.58;103072.81;6187218;23;20068;-78
2023/04/04 01:09:11;;;;;;;3.88;2.92;;;;;;;0.29;77.96;103069.28;6210669;23;20032;-77
2023/04/04 01:11:38;;;;;;;3.92;2.80;;;;;;;0.25;77.90;103078.84;6186095;23;20049;-78
2023/04/04 01:14:06;;;;;;;2.90;2.45;;;;;;;0.21;77.62;103083.16;6190056;23;20013;-78
2023/04/04 01:16:35;;;;;;;5.68;2.65;;;;;;;0.18;78.34;103087.16;6186456;23;20101;-77
2023/04/04 01:19:05;;;;;;;5.55;3.35;;;;;;;0.15;78.11;103071.28;6189399;23;20371;-77
2023/04/04 01:21:32;;;;;;;10.10;3.00;;;;;;;0.09;78.06;103075.94;6186737;23;20348;-78
2023/04/04 01:24:01;;;;;;;4.80;2.50;;;;;;;0.02;78.01;103075.63;6188955;23;20014;-78
2023/04/04 01:26:45;;;;;;;4.55;2.45;;;;;;;0.02;78.57;103073.00;6187163;23;20014;-77
2023/04/04 01:29:12;;;;;;;3.05;2.75;;;;;;;-0.01;78.55;103073.66;6190994;23;20029;-77
2023/04/04 01:31:48;;;;;;;6.90;2.78;;;;;;;-0.07;78.25;103075.66;6187305;23;20065;-78
2023/04/04 01:34:30;;;;;;;3.90;2.97;;;;;;;-0.12;79.21;103080.28;6187485;23;20462;-78
2023/04/04 01:37:19;;;;;;;3.03;2.58;;;;;;;-0.16;79.09;103082.75;6186906;23;20048;-78
2023/04/04 01:39:52;;;;;;;3.53;2.90;;;;;;;-0.15;79.48;103073.81;6187191;23;20025;-79
2023/04/04 01:42:21;;;;;;;4.22;2.35;;;;;;;-0.19;79.29;103072.09;6187677;23;20026;-79
2023/04/04 01:44:54;;;;;;;4.47;2.72;;;;;;;-0.23;80.04;103077.19;6187716;23;20024;-79
2023/04/04 01:47:23;;;;;;;3.10;2.70;;;;;;;-0.24;80.58;103083.50;6187105;23;20025;-79
2023/04/04 01:49:52;;;;;;;6.32;2.70;;;;;;;-0.26;80.14;103082.25;6186850;23;20100;-80
2023/04/04 01:52:20;;;;;;;2.90;2.60;;;;;;;-0.31;80.53;103077.94;6187180;23;20017;-80
2023/04/04 01:54:46;;;;;;;5.72;2.70;;;;;;;-0.35;80.53;103071.78;6188954;23;20392;-79
2023/04/04 01:57:14;;;;;;;3.08;2.75;;;;;;;-0.39;80.19;103076.88;6187244;23;20428;-79
2023/04/04 01:59:40;;;;;;;3.63;2.70;;;;;;;-0.43;80.50;103073.34;6191982;23;20021;-79
2023/04/04 02:02:07;;;;;;;7.88;2.88;;;;;;;-0.45;80.59;103062.41;6187587;23;20411;-80
2023/04/04 02:04:33;;;;;;;3.80;2.78;;;;;;;-0.44;80.96;103068.41;6187023;23;20452;-80
2023/04/04 02:07:00;;;;;;;3.20;2.90;;;;;;;-0.52;80.75;103072.56;6189313;23;20018;-80
2023/04/04 02:09:26;;;;;;;2.70;2.38;;;;;;;-0.57;80.67;103071.94;6188395;23;20021;-79
2023/04/04 02:11:53;;;;;;;4.07;2.45;;;;;;;-0.58;81.70;103059.94;6187151;23;20022;-79
2023/04/04 02:14:20;;;;;;;4.75;2.92;;;;;;;-0.59;81.67;103077.47;6187218;23;20127;-79
2023/04/04 02:16:47;;;;;;;3.25;2.67;;;;;;;-0.64;81.12;103074.22;6193302;23;20418;-79
2023/04/04 02:19:13;;;;;;;3.53;2.70;;;;;;;-0.68;82.13;103077.47;6186287;23;20017;-79
2023/04/04 02:21:40;;;;;;;8.25;3.08;;;;;;;-0.67;81.94;103078.22;6187256;23;20041;-80
2023/04/04 02:24:07;;;;;;;3.47;2.65;;;;;;;-0.69;82.05;103086.38;6187368;23;20455;-80
2023/04/04 02:26:33;;;;;;;7.93;2.80;;;;;;;-0.71;82.50;103083.31;6189215;23;20048;-79
2023/04/04 02:29:00;;;;;;;3.13;2.85;;;;;;;-0.73;82.55;103084.69;6188571;23;20022;-80
2023/04/04 02:31:26;;;;;;;4.03;3.17;;;;;;;-0.74;82.46;103080.53;6187305;23;20080;-80
2023/04/04 02:33:53;;;;;;;2.58;2.38;;;;;;;-0.78;82.30;103075.13;6188585;23;20384;-80
2023/04/04 02:36:21;;;;;;;4.28;2.95;;;;;;;-0.85;82.17;103076.66;6188725;23;20478;-80
2023/04/04 02:38:50;;;;;;;3.25;2.63;;;;;;;-0.88;82.21;103072.03;6186858;23;20061;-80
2023/04/04 02:41:19;;;;;;;3.10;2.75;;;;;;;-0.87;82.06;103074.34;6186711;23;20032;-80
2023/04/04 02:43:46;;;;;;;3.10;2.70;;;;;;;-0.96;82.35;103065.72;6187199;23;20017;-80
2023/04/04 02:46:12;;;;;;;4.20;3.10;;;;;;;-0.98;82.05;103057.41;6188672;23;20085;-80
2023/04/04 02:48:49;;;;;;;3.42;3.00;;;;;;;-0.96;82.23;103060.47;6186480;23;20470;-79
2023/04/04 02:51:15;;;;;;;3.17;2.63;;;;;;;-0.98;83.07;103052.19;6190637;23;20823;-79
2023/04/04 02:53:42;;;;;;;3.42;3.03;;;;;;;-0.97;83.16;103060.78;6189920;23;20017;-79
2023/04/04 02:56:20;;;;;;;2.80;2.60;;;;;;;-1.03;83.35;103057.53;6186799;23;20021;-79
2023/04/04 02:58:47;;;;;;;3.45;2.50;;;;;;;-1.03;83.78;103054.94;6186875;23;20096;-79
2023/04/04 03:01:14;;;;;;;5.20;2.67;;;;;;;-1.06;83.64;103047.69;6187205;23;20017;-79
2023/04/04 03:03:40;;;;;;;2.70;2.35;;;;;;;-1.10;83.51;103055.38;6186546;23;20053;-79
2023/04/04 03:06:07;;;;;;;5.18;2.60;;;;;;;-1.13;83.47;103048.13;6187324;23;20033;-79
2023/04/04 03:08:34;;;;;;;3.00;2.78;;;;;;;-1.15;83.29;103052.09;6190582;23;20536;-79
2023/04/04 03:11:01;;;;;;;4.20;3.15;;;;;;;-1.19;83.39;103045.94;6188748;23;20040;-79
2023/04/04 03:13:28;;;;;;;6.72;2.65;;;;;;;-1.22;82.84;103057.03;6186749;23;20401;-79
2023/04/04 03:16:03;;;;;;;4.72;2.88;;;;;;;-1.25;82.43;103055.78;6186867;23;20022;-79
2023/04/04 03:18:40;;;;;;;4.40;2.40;;;;;;;-1.27;83.53;103063.16;6186108;23;20448;-79
2023/04/04 03:21:07;;;;;;;3.05;2.80;;;;;;;-1.29;83.22;103054.84;6187569;23;20024;-79
2023/04/04 03:23:34;;;;;;;3.10;2.78;;;;;;;-1.33;83.43;103056.53;6194312;23;20077;-80
2023/04/04 03:26:01;;;;;;;4.03;2.55;;;;;;;-1.31;83.94;103054.38;6187016;23;20483;-79
2023/04/04 03:28:28;;;;;;;3.60;2.70;;;;;;;-1.32;83.91;103047.59;6187053;23;20455;-79
2023/04/04 03:30:54;;;;;;;5.45;3.33;;;;;;;-1.38;83.92;103048.81;6188616;23;20538;-79
2023/04/04 03:33:21;;;;;;;3.47;3.05;;;;;;;-1.38;83.83;103046.19;6188136;23;20072;-79
2023/04/04 03:35:48;;;;;;;2.90;2.65;;;;;;;-1.40;84.49;103048.34;6188865;23;20018;-79
2023/04/04 03:38:14;;;;;;;5.85;3.00;;;;;;;-1.40;84.48;103041.28;6186870;23;20029;-79
2023/04/04 03:40:41;;;;;;;5.50;3.13;;;;;;;-1.43;84.85;103041.09;6188151;23;20024;-79
2023/04/04 03:43:11;;;;;;;4.22;3.15;;;;;;;-1.45;84.46;103032.78;6186561;23;20077;-78
2023/04/04 03:45:38;;;;;;;4.15;2.70;;;;;;;-1.50;84.49;103035.53;6161998;23;20028;-79
2023/04/04 03:48:08;;;;;;;2.72;2.53;;;;;;;-1.50;85.11;103031.09;6186417;23;20028;-79
2023/04/04 03:50:36;;;;;;;4.10;2.70;;;;;;;-1.52;85.08;103043.66;6186437;23;20021;-79
2023/04/04 03:53:03;;;;;;;3.33;2.55;;;;;;;-1.55;84.34;103040.88;6188783;23;20072;-79
2023/04/04 03:55:29;;;;;;;6.15;2.90;;;;;;;-1.64;84.68;103038.25;6186900;23;20018;-79
2023/04/04 03:57:58;;;;;;;5.63;2.80;;;;;;;-1.64;85.05;103034.88;6188650;23;20021;-80
2023/04/04 04:00:25;;;;;;;3.50;2.70;;;;;;;-1.63;85.80;103033.81;6186511;23;20017;-80
2023/04/04 04:02:51;;;;;;;3.20;2.90;;;;;;;-1.66;84.92;103037.00;6188575;23;20018;-80
2023/04/04 04:05:18;;;;;;;4.05;2.58;;;;;;;-1.69;85.42;103030.53;6186362;23;20134;-80
2023/04/04 04:07:45;;;;;;;4.70;2.80;;;;;;;-1.67;85.68;103040.69;6188105;23;20021;-80
2023/04/04 04:10:13;;;;;;;7.57;3.00;;;;;;;-1.66;85.45;103050.06;6188121;23;20022;-79
2023/04/04 04:12:39;;;;;;;4.60;2.60;;;;;;;-1.70;84.99;103049.91;6189410;23;20080;-79
2023/04/04 04:15:07;;;;;;;4.50;2.92;;;;;;;-1.72;85.25;103044.19;6191545;23;20044;-79
2023/04/04 04:17:39;;;;;;;3.67;2.47;;;;;;;-1.73;85.44;103048.66;6186453;23;20029;-79
2023/04/04 04:20:08;;;;;;;3.88;2.85;;;;;;;-1.77;85.41;103052.94;6186710;23;20021;-79
2023/04/04 04:22:47;;;;;;;2.85;2.63;;;;;;;-1.80;85.52;103048.28;6162850;23;20017;-79
2023/04/04 04:25:15;;;;;;;4.28;3.35;;;;;;;-1.83;85.49;103042.91;6186444;23;20447;-79
2023/04/04 04:27:46;;;;;;;3.15;2.80;;;;;;;-1.84;86.04;103044.75;6186809;23;20105;-79
2023/04/04 04:30:13;;;;;;;5.05;3.10;;;;;;;-1.84;86.23;103047.34;6189236;23;20049;-79
2023/04/04 04:32:43;;;;;;;4.70;2.65;;;;;;;-1.83;85.92;103042.91;6186538;23;20017;-80
2023/04/04 04:35:11;;;;;;;3.90;3.05;;;;;;;-1.89;85.85;103047.47;6186341;23;20470;-80
2023/04/04 04:37:39;;;;;;;4.07;3.03;;;;;;;-1.90;86.39;103045.94;6186363;23;20021;-79
2023/04/04 04:40:08;;;;;;;3.50;2.92;;;;;;;-1.89;86.52;103051.91;6186932;23;20047;-79
2023/04/04 04:42:45;;;;;;;4.90;2.53;;;;;;;-1.90;86.36;103045.94;6162531;23;20100;-79
2023/04/04 04:45:15;;;;;;;6.63;2.92;;;;;;;-1.91;86.92;103041.78;6185939;23;20021;-79
2023/04/04 04:47:46;;;;;;;4.53;2.95;;;;;;;-1.92;86.94;103044.69;6187276;23;20097;-79
2023/04/04 04:50:16;;;;;;;3.50;3.17;;;;;;;-1.92;87.02;103045.44;6187852;23;20021;-78
2023/04/04 04:52:49;;;;;;;6.95;3.33;;;;;;;-1.95;86.52;103045.28;6187079;23;20033;-79
2023/04/04 04:55:16;;;;;;;4.95;3.20;;;;;;;-2.03;87.08;103044.94;6212179;23;20018;-79
2023/04/04 04:57:48;;;;;;;3.90;3.30;;;;;;;-2.00;87.12;103054.03;6187178;23;20025;-79
2023/04/04 05:00:21;;;;;;;3.78;3.38;;;;;;;-1.97;87.24;103056.00;6187585;23;20017;-79
2023/04/04 05:02:49;;;;;;;3.47;3.05;;;;;;;-1.99;87.46;103055.53;6188804;23;20459;-80
2023/04/04 05:05:22;;;;;;;6.88;3.42;;;;;;;-1.99;87.78;103058.16;6187618;23;20442;-79
2023/04/04 05:07:49;;;;;;;4.28;3.42;;;;;;;-2.02;87.31;103062.16;6187175;23;20030;-80
2023/04/04 05:10:16;;;;;;;4.28;3.70;;;;;;;-2.03;87.29;103063.22;6188755;23;20022;-79
2023/04/04 05:12:43;;;;;;;6.53;3.22;;;;;;;-2.01;87.28;103057.69;6186860;23;20014;-79
2023/04/04 05:15:15;;;;;;;9.18;3.60;;;;;;;-2.04;87.60;103058.28;6186223;23;20053;-79
2023/04/04 05:17:43;;;;;;;6.93;3.47;;;;;;;-2.02;87.52;103056.16;6212888;23;20080;-80
2023/04/04 05:20:11;;;;;;;6.38;3.15;;;;;;;-2.01;87.46;103055.09;6188911;23;20022;-79
2023/04/04 05:22:43;;;;;;;4.05;3.42;;;;;;;-1.97;87.17;103061.22;6187224;23;20017;-79
2023/04/04 05:25:12;;;;;;;5.57;3.25;;;;;;;-1.96;87.33;103060.16;6186839;23;20017;-79
2023/04/04 05:27:46;;;;;;;3.65;3.08;;;;;;;-1.94;87.63;103058.03;6186948;23;20022;-79
2023/04/04 05:30:16;;;;;;;3.92;3.08;;;;;;;-1.90;87.27;103058.97;6187332;23;20052;-79
2023/04/04 05:32:54;;;;;;;5.35;3.55;;;;;;;-1.85;87.21;103055.47;6187792;23;20018;-79
2023/04/04 05:35:25;;;;;;;3.88;3.42;;;;;;;-1.85;87.40;103050.25;6188670;23;20119;-79
2023/04/04 05:37:53;;;;;;;4.40;3.45;;;;;;;-1.84;87.35;103057.78;6186958;23;20029;-79
2023/04/04 05:40:21;;;;;;;5.07;3.97;;;;;;;-1.84;87.84;103065.63;6186958;23;20038;-79
2023/04/04 05:42:55;;;;;;;4.13;3.53;;;;;;;-1.80;87.71;103063.97;6186632;23;20059;-79
2023/04/04 05:45:25;;;;;;;4.80;3.85;;;;;;;-1.77;87.70;103055.53;6187071;23;20065;-79
2023/04/04 05:47:53;;;;;;;6.38;3.92;;;;;;;-1.73;88.04;103059.09;6186843;23;20132;-79
2023/04/04 05:50:21;;;;;;;5.28;3.83;;;;;;;-1.69;88.20;103061.88;6186824;23;20045;-79
2023/04/04 05:52:48;;;;;;;3.85;3.47;;;;;;;-1.64;88.25;103061.00;6212445;23;20068;-79
2023/04/04 05:55:15;;;;;;;4.53;3.55;;;;;;;-1.56;88.45;103062.84;6189813;23;20038;-79
2023/04/04 05:57:49;;;;;;;5.90;4.38;;;;;;;-1.47;88.09;103072.28;6186583;23;20026;-79
2023/04/04 06:00:21;;;;;;;5.63;4.43;;;;;;;-1.38;88.07;103075.72;6187162;23;20439;-79
2023/04/04 06:02:59;;;;;;;5.72;3.95;;;;;;;-1.25;87.56;103076.69;6189942;23;20020;-79
2023/04/04 06:05:26;;;;;;;4.55;3.75;;;;;;;-0.85;88.34;103068.81;6187307;23;20064;-79
2023/04/04 06:07:53;;;;;;;6.78;4.07;;;;;;;1.16;86.61;103070.44;6190346;23;20018;-79
2023/04/04 06:10:20;;;;;;;5.35;4.65;;;;;;;3.44;78.45;103070.00;6192198;23;20024;-80
2023/04/04 06:12:46;;;;;;;11.02;4.72;;;;;;;4.76;71.95;103064.34;6186558;23;20057;-79
2023/04/04 06:15:13;;;;;;;6.78;4.40;;;;;;;5.30;67.67;103071.53;6188530;23;20041;-79
2023/04/04 06:17:41;;;;;;;6.93;4.40;;;;;;;6.54;63.45;103075.69;6162441;23;20056;-79
2023/04/04 06:20:09;;;;;;;9.27;4.65;;;;;;;7.53;59.08;103073.63;6186763;23;20478;-79
2023/04/04 06:22:36;;;;;;;8.30;4.50;;;;;;;7.30;57.42;103066.53;6189922;23;20391;-79
2023/04/04 06:25:03;;;;;;;6.00;3.97;;;;;;;6.00;59.35;103066.09;6189625;23;20451;-79
2023/04/04 06:27:30;;;;;;;5.53;4.05;;;;;;;5.00;62.03;103055.44;6186874;23;20021;-77
2023/04/04 06:29:59;;;;;;;5.78;4.00;;;;;;;4.60;63.20;103056.44;6187369;23;20017;-80
2023/04/04 06:32:26;;;;;;;5.93;4.47;;;;;;;4.57;64.03;103059.75;6187742;23;20096;-76
2023/04/04 06:34:53;;;;;;;5.90;4.60;;;;;;;5.00;64.04;103066.75;6189877;23;20037;-76
2023/04/04 06:37:33;;;;;;;6.40;5.20;;;;;;;5.42;63.38;103063.47;6187239;23;20154;-76
2023/04/04 06:40:08;;;;;;;6.15;4.68;;;;;;;5.34;62.44;103072.38;6187979;23;20088;-75
2023/04/04 06:42:35;;;;;;;8.57;4.97;;;;;;;4.98;63.82;103078.78;6187848;23;20056;-76
2023/04/04 06:45:03;;;;;;;9.38;5.38;;;;;;;4.66;64.88;103084.09;6212846;23;20441;-76
2023/04/04 06:47:31;;;;;;;6.18;5.00;;;;;;;4.46;66.29;103086.97;6189458;23;20021;-76
2023/04/04 06:50:00;;;;;;;8.63;5.63;;;;;;;4.25;67.36;103084.59;6188074;23;20017;-77
2023/04/04 06:52:27;;;;;;;7.25;5.35;;;;;;;4.20;67.44;103095.38;6189614;23;20084;-77
2023/04/04 06:54:54;;;;;;;6.82;5.38;;;;;;;4.08;67.55;103088.31;6186776;23;20032;-77
2023/04/04 06:57:20;;;;;;;7.20;5.22;;;;;;;3.98;68.20;103094.09;6188623;23;20025;-77
2023/04/04 06:59:54;;;;;;;13.63;5.68;;;;;;;3.85;68.94;103096.00;6188079;23;20052;-78
2023/04/04 07:02:20;;;;;;;9.43;5.43;;;;;;;3.81;68.90;103087.22;6189512;23;20090;-79
2023/04/04 07:04:47;;;;;;;9.80;5.80;;;;;;;3.79;69.33;103083.38;6189509;23;20018;-75
2023/04/04 07:07:13;;;;;;;7.35;5.70;;;;;;;3.82;69.40;103083.50;6188996;23;20060;-76
2023/04/04 07:09:39;;;;;;;8.63;5.43;;;;;;;3.82;69.36;103083.50;6189025;23;20439;-77
2023/04/04 07:12:06;;;;;;;10.52;5.97;;;;;;;3.78;69.47;103079.22;6189964;23;20024;-77
2023/04/04 07:14:32;;;;;;;9.85;5.43;;;;;;;3.79;69.91;103080.75;6190090;23;20064;-77
2023/04/04 07:16:59;;;;;;;7.13;5.32;;;;;;;3.83;69.95;103081.63;6187682;23;20092;-77
2023/04/04 07:19:31;;;;;;;7.47;5.78;;;;;;;3.99;70.31;103085.84;6189190;23;20040;-77
2023/04/04 07:21:57;;;;;;;7.07;5.75;;;;;;;4.17;70.02;103086.28;6189514;23;20089;-77
2023/04/04 07:24:23;;;;;;;5.82;4.53;;;;;;;4.30;68.16;103087.75;6188624;23;20056;-77
2023/04/04 07:26:50;;;;;;;5.57;4.90;;;;;;;4.42;66.91;103092.16;6189706;23;20025;-77
2023/04/04 07:29:16;;;;;;;4.75;4.35;;;;;;;4.58;66.38;103095.59;6190024;23;20013;-80
2023/04/04 07:31:43;;;;;;;4.70;4.30;;;;;;;4.83;64.91;103090.09;6189242;23;20109;-77
2023/04/04 07:34:10;;;;;;;5.32;4.13;;;;;;;4.94;63.99;103093.75;6188817;23;20021;-77
2023/04/04 07:36:36;;;;;;;6.63;4.40;;;;;;;5.07;63.99;103087.28;6189613;23;20005;-78
2023/04/04 07:39:03;;;;;;;5.88;4.78;;;;;;;5.12;63.09;103079.09;6162424;23;20017;-77
2023/04/04 07:41:30;;;;;;;5.85;4.28;;;;;;;5.12;62.54;103081.72;6188504;23;20017;-77
2023/04/04 07:43:56;;;;;;;6.47;4.50;;;;;;;5.22;62.81;103083.81;6189966;23;20022;-78
2023/04/04 07:46:23;;;;;;;5.03;4.20;;;;;;;5.29;61.90;103088.47;6187919;23;20040;-78
2023/04/04 07:48:50;;;;;;;4.70;4.22;;;;;;;5.26;62.01;103091.81;6189383;23;20470;-79
2023/04/04 07:51:16;;;;;;;7.13;4.57;;;;;;;5.27;61.20;103096.75;6187256;23;20029;-80
2023/04/04 07:53:43;;;;;;;7.18;4.60;;;;;;;5.24;61.05;103086.88;6188795;23;20068;-80
2023/04/04 07:56:09;;;;;;;13.23;3.95;;;;;;;5.26;62.40;103083.88;6189029;23;20032;-84
2023/04/04 07:58:36;;;;;;;4.95;4.45;;;;;;;5.20;61.49;103080.00;6189938;23;20439;-82
2023/04/04 08:01:02;;;;;;;7.35;4.47;;;;;;;5.15;61.66;103075.00;6191569;23;20041;-80
2023/04/04 08:03:29;;;;;;;5.10;4.65;;;;;;;5.20;62.16;103083.38;6189671;23;20017;-81
2023/04/04 08:05:56;;;;;;;4.85;4.15;;;;;;;5.29;61.63;103077.91;6189104;23;20519;-81
2023/04/04 08:08:23;;;;;;;7.38;3.70;;;;;;;5.50;61.43;103081.00;6188554;23;20434;-83
2023/04/04 08:10:49;;;;;;;4.55;3.92;;;;;;;5.64;60.33;103078.63;6189140;23;20466;-80
2023/04/04 08:13:16;;;;;;;8.15;4.03;;;;;;;5.76;60.07;103075.06;6186917;23;20420;-79
2023/04/04 08:15:42;;;;;;;5.40;4.15;;;;;;;5.86;60.75;103073.75;6190554;23;20017;-85
2023/04/04 08:18:09;;;;;;;4.38;4.03;;;;;;;6.11;59.75;103068.94;6189055;23;20020;-79
2023/04/04 08:20:36;;;;;;;4.18;3.88;;;;;;;6.29;59.62;103073.41;6189102;23;20466;-80
2023/04/04 08:23:03;;;;;;;5.30;4.10;;;;;;;6.54;59.06;103073.03;6188596;23;20020;-80
2023/04/04 08:25:30;;;;;;;8.68;4.47;;;;;;;6.61;57.98;103076.56;6189133;23;20076;-80
2023/04/04 08:27:56;;;;;;;5.10;4.35;;;;;;;6.63;58.62;103073.56;6189642;23;20451;-83
2023/04/04 08:30:23;;;;;;;4.13;3.72;;;;;;;6.83;58.36;103079.50;6190444;23;20014;-81
2023/04/04 08:32:49;;;;;;;5.03;4.35;;;;;;;7.08;57.21;103069.28;6191780;23;20018;-78
2023/04/04 08:35:16;;;;;;;5.85;3.97;;;;;;;7.22;56.36;103064.13;6189675;23;20021;-82
2023/04/04 08:37:46;;;;;;;5.20;3.72;;;;;;;7.50;55.59;103069.81;6189743;23;20072;-81
2023/04/04 08:40:13;;;;;;;6.40;4.00;;;;;;;7.63;53.81;103065.75;6189666;23;20053;-82
2023/04/04 08:42:42;;;;;;;3.92;3.60;;;;;;;7.70;53.64;103055.25;6189888;23;20514;-81
2023/04/04 08:45:10;;;;;;;8.68;4.10;;;;;;;7.89;53.40;103064.16;6190005;23;20902;-80
2023/04/04 08:47:38;;;;;;;7.85;3.97;;;;;;;7.95;53.42;103055.50;6190495;23;20392;-77
2023/04/04 08:50:06;;;;;;;4.30;3.38;;;;;;;8.05;51.25;103059.34;6190084;23;20025;-78
2023/04/04 08:52:36;;;;;;;4.63;3.40;;;;;;;8.17;51.59;103053.78;6189147;23;20048;-78
2023/04/04 08:55:04;;;;;;;3.83;3.25;;;;;;;8.38;52.74;103060.44;6190179;23;20025;-79
2023/04/04 08:57:32;;;;;;;3.45;3.15;;;;;;;8.59;49.57;103057.91;6189538;23;20073;-77
2023/04/04 08:59:59;;;;;;;3.47;3.22;;;;;;;8.62;49.19;103057.19;6190088;23;20024;-76
2023/04/04 09:02:33;;;;;;;2.90;2.70;;;;;;;8.73;47.32;103058.03;6190464;23;20105;-76
2023/04/04 09:05:01;;;;;;;5.82;2.60;;;;;;;8.86;46.28;103053.91;6189436;23;20024;-76
2023/04/04 09:07:32;;;;;;;5.25;4.68;;;;;;;8.92;45.50;103059.63;6187959;23;20089;-75
2023/04/04 09:10:00;;;;;;;85.70;55.25;;;;;;;9.06;44.61;103056.31;6189738;23;20017;-76
2023/04/04 09:12:27;;;;;;;8.57;4.50;;;;;;;9.19;45.16;103060.16;6189343;23;20458;-75
2023/04/04 09:14:55;;;;;;;6.55;2.83;;;;;;;9.30;43.64;103063.59;6189877;23;20884;-75
2023/04/04 09:17:22;;;;;;;5.80;2.38;;;;;;;9.17;43.14;103060.53;6189809;23;20014;-75
2023/04/04 09:19:49;;;;;;;5.93;2.25;;;;;;;9.27;43.97;103059.03;6189579;23;20463;-75
2023/04/04 09:22:16;;;;;;;5.60;2.53;;;;;;;9.34;43.69;103057.16;6189491;23;20014;-77
2023/04/04 09:24:43;;;;;;;2.65;2.45;;;;;;;9.49;44.52;103057.22;6190140;23;20018;-76
2023/04/04 09:27:11;;;;;;;3.70;2.83;;;;;;;9.64;44.34;103064.84;6189527;23;20467;-76
2023/04/04 09:29:39;;;;;;;4.45;2.80;;;;;;;9.77;44.99;103059.19;6190311;23;20017;-76
2023/04/04 09:32:09;;;;;;;3.65;2.80;;;;;;;9.77;44.57;103061.84;6190080;23;20053;-77
2023/04/04 09:34:36;;;;;;;3.00;2.78;;;;;;;9.85;43.82;103060.72;6191232;23;20049;-76
2023/04/04 09:37:04;;;;;;;4.70;3.08;;;;;;;9.94;44.83;103053.91;6189998;23;20478;-76
2023/04/04 09:39:37;;;;;;;5.22;2.95;;;;;;;10.13;44.40;103060.75;6189611;23;20041;-76
2023/04/04 09:42:06;;;;;;;3.83;3.00;;;;;;;10.13;43.19;103052.75;6189470;23;20024;-76
2023/04/04 09:44:33;;;;;;;5.82;3.13;;;;;;;10.14;42.35;103051.63;6189696;23;20433;-76
2023/04/04 09:47:26;;;;;;;5.05;2.90;;;;;;;10.26;43.51;103048.63;6190024;23;20021;-76
2023/04/04 09:49:58;;;;;;;4.03;3.00;;;;;;;10.38;42.92;103044.06;6190065;23;20465;-76
2023/04/04 09:52:25;;;;;;;5.05;2.80;;;;;;;10.43;42.23;103052.38;6189467;23;20017;-76
2023/04/04 09:54:56;;;;;;;3.83;2.60;;;;;;;10.30;42.30;103038.72;6189823;23;20025;-77
2023/04/04 09:57:33;;;;;;;2.67;2.55;;;;;;;10.21;41.64;103041.00;6189623;23;20009;-76
2023/04/04 10:00:03;;;;;;;5.03;2.92;;;;;;;10.19;41.38;103043.28;6189893;23;20018;-77
2023/04/04 10:02:36;;;;;;;3.20;2.90;;;;;;;10.21;42.07;103037.59;6189591;23;20482;-76
2023/04/04 10:05:03;;;;;;;4.10;2.58;;;;;;;10.49;41.54;103039.44;6189496;23;20025;-77
2023/04/04 10:07:32;;;;;;;6.15;3.15;;;;;;;10.57;41.76;103038.31;6188765;23;20490;-75
2023/04/04 10:10:05;;;;;;;2.67;2.47;;;;;;;10.74;41.11;103037.50;6189471;23;20021;-76
2023/04/04 10:12:32;;;;;;;4.20;3.03;;;;;;;10.95;40.98;103042.00;6189256;23;20060;-75
2023/04/04 10:15:00;;;;;;;3.00;2.70;;;;;;;10.90;39.96;103029.84;6189514;23;20213;-75
2023/04/04 10:17:40;;;;;;;4.15;2.85;;;;;;;10.94;41.19;103021.84;6189152;23;20089;-76
2023/04/04 10:20:08;;;;;;;4.97;2.88;;;;;;;10.79;39.96;103025.72;6191582;23;20021;-79
2023/04/04 10:22:36;;;;;;;4.15;2.70;;;;;;;10.73;41.03;103019.25;6188544;23;20014;-78
2023/04/04 10:25:04;;;;;;;2.80;2.60;;;;;;;10.72;40.83;103018.50;6189937;23;20123;-76
2023/04/04 10:27:31;;;;;;;5.85;2.88;;;;;;;10.58;40.71;103010.53;6189516;23;20084;-76
2023/04/04 10:29:59;;;;;;;2.85;2.65;;;;;;;10.78;40.74;103005.53;6188069;23;20459;-76
2023/04/04 10:32:52;;;;;;;5.82;2.63;;;;;;;10.86;40.33;103015.75;6188816;23;20023;-75
2023/04/04 10:35:21;;;;;;;4.28;2.88;;;;;;;10.69;39.13;103011.28;6176625;23;20025;-75
2023/04/04 10:38:00;;;;;;;3.33;2.50;;;;;;;10.61;38.85;103005.19;6190028;23;20013;-76
2023/04/04 10:40:33;;;;;;;5.07;2.50;;;;;;;10.64;39.42;102999.09;6187677;23;20044;-77
2023/04/04 10:43:08;;;;;;;3.53;2.55;;;;;;;10.73;38.05;103003.25;6189315;23;20013;-77
2023/04/04 10:45:37;;;;;;;3.22;2.50;;;;;;;10.55;38.24;103000.63;6189797;23;20469;-76
2023/04/04 10:48:05;;;;;;;5.43;2.30;;;;;;;10.45;38.54;103007.50;6190448;23;20085;-76
2023/04/04 10:50:38;;;;;;;2.72;2.53;;;;;;;10.47;37.75;102993.81;6189469;23;20092;-76
2023/04/04 10:53:05;;;;;;;4.22;2.53;;;;;;;10.72;38.78;102983.09;6189416;23;20021;-76
2023/04/04 10:55:32;;;;;;;2.83;2.35;;;;;;;10.81;38.61;102986.09;6189264;23;20017;-75
2023/04/04 10:58:00;;;;;;;3.13;2.38;;;;;;;10.74;39.03;102986.13;6189545;23;20463;-76
2023/04/04 11:00:26;;;;;;;2.60;2.40;;;;;;;10.69;39.33;102988.06;6189226;23;20069;-76
2023/04/04 11:02:58;;;;;;;4.72;2.80;;;;;;;10.59;38.69;102994.16;6187375;23;20448;-75
2023/04/04 11:05:39;;;;;;;4.82;2.67;;;;;;;10.59;39.83;102982.75;6188073;23;20448;-75
2023/04/04 11:08:09;;;;;;;3.42;3.08;;;;;;;10.74;39.66;102986.91;6189715;23;20092;-75
2023/04/04 11:10:56;;;;;;;5.95;3.10;;;;;;;10.76;39.69;102986.50;6189499;23;20021;-76
2023/04/04 11:13:34;;;;;;;3.47;2.90;;;;;;;10.65;38.94;102984.63;6189266;23;20021;-75
2023/04/04 11:16:06;;;;;;;4.35;3.03;;;;;;;10.70;38.59;102980.81;6188762;23;20014;-76
2023/04/04 11:18:40;;;;;;;2.67;2.47;;;;;;;10.80;39.54;102974.69;6189647;23;20045;-76
2023/04/04 11:21:08;;;;;;;4.03;2.97;;;;;;;11.05;39.14;102971.16;6189776;23;20411;-76
2023/04/04 11:23:58;;;;;;;5.00;3.45;;;;;;;11.08;39.70;102960.47;6190652;23;20017;-76
2023/04/04 11:26:25;;;;;;;4.05;2.80;;;;;;;10.92;38.58;102965.50;6188858;23;20454;-76
2023/04/04 11:28:55;;;;;;;3.17;2.85;;;;;;;10.92;39.67;102957.50;6187708;23;20017;-76
2023/04/04 11:31:24;;;;;;;3.65;2.72;;;;;;;10.87;39.27;102957.91;6188537;23;20041;-76
2023/04/04 11:33:57;;;;;;;3.50;2.70;;;;;;;10.86;38.65;102957.16;6189289;23;20096;-76
2023/04/04 11:36:40;;;;;;;3.72;2.40;;;;;;;10.76;39.14;102962.53;6188713;23;20018;-76